Time;durP1;ratioP1;P1;durP2;ratioP2;P2;SDS_P1;SDS_P2;PMS_P1;PMS_P2;Temp;Humidity;BMP_temperature;BMP_pressure;BME280_temperature;BME280_humidity;BME280_pressure;Samples;Min_cycle;Max_cycle;Signal;HPM_P1;HPM_P2
2022/10/29 00:02:24;;;;;;;4.23;3.70;;;19.30;85.20;;;;;;5116919;28;20185;-45
2022/10/29 00:04:50;;;;;;;4.97;3.90;;;19.30;85.20;;;;;;5117052;28;20179;-44
2022/10/29 00:07:15;;;;;;;8.90;4.30;;;19.30;85.30;;;;;;5112279;28;20572;-47
2022/10/29 00:09:41;;;;;;;5.97;4.90;;;19.30;85.40;;;;;;5098290;28;20619;-44
2022/10/29 00:12:07;;;;;;;6.43;4.40;;;19.30;85.40;;;;;;5098452;28;20653;-43
2022/10/29 00:14:32;;;;;;;5.53;4.47;;;19.30;85.60;;;;;;5097370;28;20174;-42
2022/10/29 00:16:58;;;;;;;5.10;3.33;;;19.20;85.60;;;;;;5096623;28;20210;-42
2022/10/29 00:19:24;;;;;;;5.00;3.50;;;19.20;85.60;;;;;;5108493;28;20181;-42
2022/10/29 00:21:50;;;;;;;7.13;4.53;;;19.20;85.80;;;;;;5115392;28;20182;-43
2022/10/29 00:24:16;;;;;;;5.50;4.33;;;19.20;85.80;;;;;;5113734;28;20446;-43
2022/10/29 00:26:42;;;;;;;7.27;5.00;;;19.10;85.80;;;;;;5114301;28;20622;-44
2022/10/29 00:29:07;;;;;;;6.27;4.90;;;19.10;85.90;;;;;;5097610;28;20190;-43
2022/10/29 00:31:33;;;;;;;7.33;4.63;;;19.10;86.00;;;;;;5115644;28;20174;-46
2022/10/29 00:33:58;;;;;;;6.37;4.90;;;19.10;86.10;;;;;;5100631;28;20285;-44
2022/10/29 00:36:26;;;;;;;6.47;4.23;;;19.10;86.20;;;;;;5096091;28;20242;-45
2022/10/29 00:38:52;;;;;;;6.17;4.33;;;19.10;86.30;;;;;;5095548;28;20168;-43
2022/10/29 00:41:21;;;;;;;4.70;4.20;;;19.00;86.20;;;;;;5094538;28;20860;-42
2022/10/29 00:43:52;;;;;;;7.57;3.90;;;19.00;86.30;;;;;;5097269;28;20240;-43
2022/10/29 00:46:30;;;;;;;6.93;4.77;;;19.00;86.40;;;;;;5078408;28;20441;-47
2022/10/29 00:48:58;;;;;;;6.20;4.33;;;19.00;86.50;;;;;;5077221;28;20421;-44
2022/10/29 00:51:23;;;;;;;6.27;4.93;;;19.00;86.60;;;;;;5094052;28;20420;-44
2022/10/29 00:54:05;;;;;;;5.00;3.77;;;19.00;86.70;;;;;;5076017;28;20417;-43
2022/10/29 00:56:34;;;;;;;6.03;4.37;;;18.90;86.60;;;;;;5077712;28;20512;-46
2022/10/29 00:59:01;;;;;;;5.63;4.60;;;18.90;86.70;;;;;;5095319;28;20458;-44
2022/10/29 01:01:27;;;;;;;7.97;4.70;;;18.90;86.80;;;;;;5061864;28;20459;-44
2022/10/29 01:03:54;;;;;;;4.87;3.80;;;18.90;86.90;;;;;;5096110;28;20868;-43
2022/10/29 01:06:21;;;;;;;5.13;3.87;;;18.90;86.90;;;;;;5078196;28;20463;-43
2022/10/29 01:08:46;;;;;;;5.97;4.67;;;18.90;87.00;;;;;;5078478;28;20428;-43
2022/10/29 01:11:22;;;;;;;4.60;4.07;;;18.90;87.00;;;;;;5097243;28;20513;-43
2022/10/29 01:13:59;;;;;;;7.50;5.03;;;18.90;87.10;;;;;;5096651;28;20185;-44
2022/10/29 01:16:35;;;;;;;5.47;4.40;;;18.90;87.10;;;;;;5097204;28;20463;-45
2022/10/29 01:19:31;;;;;;;5.10;4.00;;;18.90;87.10;;;;;;5078948;28;20878;-47
2022/10/29 01:22:10;;;;;;;7.67;4.37;;;18.90;87.80;;;;;;5095574;28;20423;-44
2022/10/29 01:25:00;;;;;;;5.60;4.10;;;18.90;87.10;;;;;;5079576;28;20432;-42
2022/10/29 01:27:54;;;;;;;6.33;4.83;;;18.90;87.00;;;;;;5096733;28;20775;-45
2022/10/29 01:30:44;;;;;;;6.20;4.00;;;18.90;87.00;;;;;;5096049;28;20433;-44
2022/10/29 01:33:22;;;;;;;10.00;4.80;;;18.90;86.80;;;;;;5096007;28;20418;-43
2022/10/29 01:35:57;;;;;;;7.70;4.53;;;18.90;86.80;;;;;;5095345;28;20415;-42
2022/10/29 01:38:45;;;;;;;5.53;4.47;;;18.90;86.80;;;;;;5078459;28;20406;-45
2022/10/29 01:41:39;;;;;;;7.43;4.87;;;18.90;86.70;;;;;;5077808;28;20823;-43
2022/10/29 01:44:22;;;;;;;5.93;3.90;;;19.00;86.80;;;;;;5096504;28;20450;-42
2022/10/29 01:46:52;;;;;;;5.23;3.83;;;19.00;87.00;;;;;;5096537;28;20462;-44
2022/10/29 01:49:24;;;;;;;7.63;4.43;;;19.00;86.80;;;;;;5078535;28;20450;-45
2022/10/29 01:51:51;;;;;;;5.10;4.47;;;19.00;86.70;;;;;;5078209;28;20532;-43
2022/10/29 01:54:17;;;;;;;7.43;4.27;;;19.00;86.70;;;;;;5078972;28;20470;-46
2022/10/29 01:56:42;;;;;;;5.20;3.97;;;19.00;86.50;;;;;;5096528;28;20522;-45
2022/10/29 01:59:11;;;;;;;5.77;4.17;;;19.00;86.60;;;;;;5097260;28;20175;-43
2022/10/29 02:01:57;;;;;;;5.53;3.77;;;19.00;86.60;;;;;;5100344;28;20246;-43
2022/10/29 02:04:28;;;;;;;6.40;4.40;;;19.00;86.50;;;;;;5101117;28;20759;-44
2022/10/29 02:07:18;;;;;;;6.50;4.13;;;19.00;86.50;;;;;;5100578;28;20417;-43
2022/10/29 02:10:14;;;;;;;5.97;3.60;;;19.00;86.60;;;;;;5099407;28;20419;-44
2022/10/29 02:12:48;;;;;;;5.20;3.70;;;19.00;86.70;;;;;;5098760;28;20833;-41
2022/10/29 02:15:35;;;;;;;4.97;4.17;;;19.00;86.70;;;;;;5099759;28;20517;-42
2022/10/29 02:18:02;;;;;;;7.80;4.03;;;19.00;86.70;;;;;;5081891;28;20481;-43
2022/10/29 02:20:29;;;;;;;6.93;4.37;;;19.00;86.80;;;;;;5099013;28;20427;-44
2022/10/29 02:22:54;;;;;;;5.93;4.10;;;19.00;86.80;;;;;;5099631;28;20421;-47
2022/10/29 02:25:20;;;;;;;5.83;3.93;;;19.00;86.70;;;;;;5099556;28;20421;-43
2022/10/29 02:27:46;;;;;;;5.37;4.50;;;19.00;86.80;;;;;;5099705;28;20582;-43
2022/10/29 02:30:11;;;;;;;6.73;4.03;;;19.00;86.80;;;;;;5098279;28;20183;-44
2022/10/29 02:32:37;;;;;;;8.47;4.20;;;19.00;86.80;;;;;;5098237;28;20205;-43
2022/10/29 02:35:03;;;;;;;7.77;4.03;;;19.00;86.80;;;;;;5098655;28;20245;-41
2022/10/29 02:37:29;;;;;;;4.60;3.70;;;19.00;86.80;;;;;;5098968;28;20202;-42
2022/10/29 02:39:54;;;;;;;4.63;4.07;;;19.00;86.80;;;;;;5081854;28;20426;-42
2022/10/29 02:42:20;;;;;;;6.97;4.50;;;19.00;86.80;;;;;;5099700;28;20172;-42
2022/10/29 02:44:46;;;;;;;6.33;3.90;;;19.00;86.70;;;;;;5100300;28;20177;-43
2022/10/29 02:47:11;;;;;;;8.77;3.60;;;19.00;86.60;;;;;;5100052;28;20570;-44
2022/10/29 02:49:37;;;;;;;5.63;4.60;;;19.00;86.40;;;;;;5099960;28;20581;-43
2022/10/29 02:52:03;;;;;;;5.40;4.30;;;19.00;86.40;;;;;;5098018;28;20194;-45
2022/10/29 02:54:28;;;;;;;6.03;4.60;;;19.00;86.40;;;;;;5098589;28;20203;-45
2022/10/29 02:56:54;;;;;;;5.40;4.00;;;19.00;86.50;;;;;;5098082;28;20238;-44
2022/10/29 02:59:20;;;;;;;5.80;4.43;;;19.00;86.40;;;;;;5097504;28;20271;-41
2022/10/29 03:01:45;;;;;;;4.93;4.17;;;19.00;86.40;;;;;;5098533;28;20541;-42
2022/10/29 03:04:11;;;;;;;5.73;4.40;;;19.00;86.40;;;;;;5098411;28;20178;-43
2022/10/29 03:06:36;;;;;;;5.90;4.73;;;19.00;86.30;;;;;;5098392;28;20183;-43
2022/10/29 03:09:03;;;;;;;5.53;4.37;;;19.00;86.30;;;;;;5099100;28;20190;-42
2022/10/29 03:11:28;;;;;;;8.10;6.53;;;19.00;87.00;;;;;;5099375;28;20247;-46
2022/10/29 03:13:54;;;;;;;9.60;4.57;;;19.10;86.50;;;;;;5099411;28;20499;-46
2022/10/29 03:16:19;;;;;;;7.40;4.97;;;19.00;86.10;;;;;;5099181;28;20218;-43
2022/10/29 03:18:45;;;;;;;10.33;5.33;;;19.00;85.00;;;;;;5099197;28;20204;-43
2022/10/29 03:21:11;;;;;;;7.70;4.60;;;18.90;84.20;;;;;;5080853;28;20182;-43
2022/10/29 03:23:36;;;;;;;8.10;5.70;;;18.70;83.80;;;;;;5098827;28;20519;-46
2022/10/29 03:26:02;;;;;;;11.20;5.17;;;18.60;83.60;;;;;;5098471;28;20196;-43
2022/10/29 03:28:29;;;;;;;10.17;5.33;;;18.50;83.60;;;;;;5098822;28;20188;-48
2022/10/29 03:30:57;;;;;;;10.93;4.83;;;18.40;83.60;;;;;;5097152;28;20580;-45
2022/10/29 03:33:25;;;;;;;7.33;4.13;;;18.20;83.50;;;;;;5078633;28;20429;-45
2022/10/29 03:36:01;;;;;;;8.17;4.30;;;18.10;83.60;;;;;;5078310;28;20441;-44
2022/10/29 03:38:27;;;;;;;9.93;5.67;;;18.00;83.60;;;;;;5078327;28;20417;-48
2022/10/29 03:40:53;;;;;;;8.90;4.60;;;18.00;83.90;;;;;;5078175;28;20403;-45
2022/10/29 03:43:19;;;;;;;8.73;5.30;;;17.90;84.00;;;;;;5060839;28;20416;-44
2022/10/29 03:45:52;;;;;;;10.90;4.50;;;17.80;84.20;;;;;;5078212;28;20235;-47
2022/10/29 03:48:18;;;;;;;9.43;4.80;;;17.70;84.40;;;;;;5078117;28;20196;-50
2022/10/29 03:50:43;;;;;;;12.90;5.20;;;17.70;84.70;;;;;;5077583;28;20419;-46
2022/10/29 03:53:09;;;;;;;6.20;4.30;;;17.60;85.00;;;;;;5078118;28;20471;-46
2022/10/29 03:55:35;;;;;;;5.40;4.33;;;17.60;85.40;;;;;;5077990;28;20182;-45
2022/10/29 03:58:01;;;;;;;8.87;4.73;;;17.50;85.60;;;;;;5060454;28;20617;-46
2022/10/29 04:00:26;;;;;;;6.53;4.63;;;17.50;86.70;;;;;;5077679;28;20292;-43
2022/10/29 04:02:52;;;;;;;5.90;4.87;;;17.40;86.20;;;;;;5077211;28;20166;-46
2022/10/29 04:05:17;;;;;;;6.73;4.03;;;17.40;86.60;;;;;;5077608;28;20420;-43
2022/10/29 04:07:43;;;;;;;7.43;4.50;;;17.30;86.80;;;;;;5077780;28;20177;-45
2022/10/29 04:10:09;;;;;;;7.03;5.00;;;17.30;87.00;;;;;;5078085;28;20176;-45
2022/10/29 04:12:34;;;;;;;9.90;5.30;;;17.20;87.20;;;;;;5078060;28;20184;-47
2022/10/29 04:15:00;;;;;;;7.10;3.80;;;17.20;87.20;;;;;;5078159;28;20461;-46
2022/10/29 04:17:25;;;;;;;7.40;4.40;;;17.20;87.20;;;;;;5077869;28;20631;-45
2022/10/29 04:19:51;;;;;;;9.53;4.83;;;17.10;86.90;;;;;;5077961;28;20185;-45
2022/10/29 04:22:17;;;;;;;8.80;4.80;;;17.10;86.70;;;;;;5077664;28;20181;-43
2022/10/29 04:24:42;;;;;;;6.73;4.90;;;17.10;86.50;;;;;;5075845;28;20275;-44
2022/10/29 04:27:08;;;;;;;5.83;4.27;;;17.10;86.30;;;;;;5077176;28;20193;-43
2022/10/29 04:29:33;;;;;;;6.23;4.67;;;17.00;86.00;;;;;;5076911;28;20178;-48
2022/10/29 04:31:59;;;;;;;5.50;4.20;;;17.00;85.80;;;;;;5077745;28;20180;-46
2022/10/29 04:34:25;;;;;;;8.20;5.37;;;17.00;85.60;;;;;;5077082;28;20275;-43
2022/10/29 04:36:51;;;;;;;6.73;5.17;;;17.00;85.40;;;;;;5077672;28;20212;-45
2022/10/29 04:39:17;;;;;;;8.13;5.77;;;17.00;85.30;;;;;;5077107;28;20186;-43
2022/10/29 04:41:42;;;;;;;7.80;4.70;;;17.00;85.30;;;;;;5077572;28;20492;-42
2022/10/29 04:44:08;;;;;;;5.70;3.40;;;16.90;85.10;;;;;;5077559;28;20544;-46
2022/10/29 04:46:33;;;;;;;8.13;4.67;;;16.90;85.00;;;;;;5077686;28;20184;-47
2022/10/29 04:48:59;;;;;;;6.93;4.17;;;16.90;85.00;;;;;;5075979;28;20340;-44
2022/10/29 04:51:25;;;;;;;4.73;4.23;;;16.90;85.10;;;;;;5075791;28;20184;-44
2022/10/29 04:53:51;;;;;;;6.20;4.17;;;16.80;85.00;;;;;;5075514;28;20177;-47
2022/10/29 04:56:17;;;;;;;5.67;4.03;;;16.80;85.10;;;;;;5075453;28;20588;-47
2022/10/29 04:58:43;;;;;;;6.87;4.07;;;16.80;85.20;;;;;;5075009;28;20185;-47
2022/10/29 05:01:09;;;;;;;9.43;4.90;;;16.70;85.20;;;;;;5075836;28;20518;-43
2022/10/29 05:03:36;;;;;;;7.87;4.43;;;16.70;85.30;;;;;;5075769;28;20418;-44
2022/10/29 05:06:04;;;;;;;6.57;4.77;;;16.70;85.40;;;;;;5059251;28;20443;-44
2022/10/29 05:08:31;;;;;;;9.67;5.17;;;16.70;85.40;;;;;;5078064;28;20486;-43
2022/10/29 05:10:56;;;;;;;9.13;4.97;;;16.60;85.40;;;;;;5077633;28;20415;-44
2022/10/29 05:13:22;;;;;;;6.30;4.30;;;16.60;85.70;;;;;;5077173;28;20856;-45
2022/10/29 05:15:51;;;;;;;8.00;5.10;;;16.50;85.80;;;;;;5076216;28;20261;-44
2022/10/29 05:18:17;;;;;;;6.60;4.43;;;16.50;86.00;;;;;;5077057;28;20210;-44
2022/10/29 05:20:43;;;;;;;8.20;4.30;;;16.50;86.30;;;;;;5077386;28;20473;-44
2022/10/29 05:23:10;;;;;;;6.77;4.10;;;16.40;86.30;;;;;;5057694;28;20555;-43
2022/10/29 05:25:37;;;;;;;6.57;4.60;;;16.40;86.60;;;;;;5058601;28;20162;-44
2022/10/29 05:28:06;;;;;;;6.13;4.30;;;16.40;86.70;;;;;;5075648;28;20501;-45
2022/10/29 05:30:32;;;;;;;8.60;4.30;;;16.30;86.90;;;;;;5075542;28;20864;-43
2022/10/29 05:32:58;;;;;;;8.50;5.43;;;16.30;87.20;;;;;;5075947;28;20440;-47
2022/10/29 05:35:24;;;;;;;10.40;5.20;;;16.30;87.50;;;;;;5079182;28;20410;-48
2022/10/29 05:37:54;;;;;;;9.20;4.20;;;16.20;87.60;;;;;;5081085;28;20600;-45
2022/10/29 05:40:21;;;;;;;7.87;4.37;;;16.20;87.80;;;;;;5061729;28;20910;-43
2022/10/29 05:42:46;;;;;;;8.73;4.63;;;16.10;88.00;;;;;;5061700;28;20420;-44
2022/10/29 05:45:13;;;;;;;8.23;4.73;;;16.10;88.40;;;;;;5080085;28;20571;-44
2022/10/29 05:47:38;;;;;;;6.60;4.60;;;16.00;88.60;;;;;;5061121;28;20282;-44
2022/10/29 05:50:04;;;;;;;6.47;3.97;;;16.00;88.90;;;;;;5045233;28;20580;-44
2022/10/29 05:52:30;;;;;;;5.53;4.40;;;15.90;89.10;;;;;;5061911;28;20475;-43
2022/10/29 05:54:56;;;;;;;7.97;5.03;;;15.90;89.30;;;;;;5079834;28;20421;-45
2022/10/29 05:57:21;;;;;;;8.00;4.63;;;15.80;89.50;;;;;;5062153;28;20237;-44
2022/10/29 05:59:47;;;;;;;6.53;4.90;;;15.80;89.80;;;;;;5079164;28;20182;-44
2022/10/29 06:02:12;;;;;;;11.10;4.87;;;15.70;90.00;;;;;;5077806;28;20189;-43
2022/10/29 06:04:38;;;;;;;7.93;4.93;;;15.70;90.10;;;;;;5076867;28;20181;-43
2022/10/29 06:07:04;;;;;;;6.43;4.60;;;15.70;90.20;;;;;;5077155;28;20170;-44
2022/10/29 06:09:30;;;;;;;9.90;5.07;;;15.60;90.30;;;;;;5062160;28;20528;-45
2022/10/29 06:11:56;;;;;;;7.30;5.27;;;15.60;90.50;;;;;;5078878;28;20165;-43
2022/10/29 06:14:22;;;;;;;8.03;5.10;;;15.60;90.60;;;;;;5078946;28;20498;-43
2022/10/29 06:16:47;;;;;;;6.00;5.03;;;15.50;90.60;;;;;;5061165;28;20205;-44
2022/10/29 06:19:13;;;;;;;9.47;5.03;;;15.50;90.80;;;;;;5062746;28;20547;-44
2022/10/29 06:21:39;;;;;;;8.23;5.10;;;15.50;90.90;;;;;;5080498;28;20450;-43
2022/10/29 06:24:05;;;;;;;9.20;5.10;;;15.50;90.90;;;;;;5044865;28;20564;-47
2022/10/29 06:26:31;;;;;;;10.53;5.33;;;15.50;90.90;;;;;;5080140;28;20501;-45
2022/10/29 06:28:56;;;;;;;6.57;4.77;;;15.60;91.00;;;;;;5079226;28;20482;-45
2022/10/29 06:31:22;;;;;;;6.33;4.70;;;15.60;91.00;;;;;;5079128;28;20572;-43
2022/10/29 06:33:48;;;;;;;6.03;4.90;;;15.60;90.90;;;;;;5079592;28;20254;-44
2022/10/29 06:36:15;;;;;;;9.97;5.53;;;15.70;90.90;;;;;;5043946;28;20189;-45
2022/10/29 06:38:41;;;;;;;7.50;4.87;;;15.70;91.20;;;;;;5060703;28;20216;-43
2022/10/29 06:41:08;;;;;;;9.63;4.90;;;15.80;90.90;;;;;;5078214;28;21089;-44
2022/10/29 06:43:34;;;;;;;10.60;6.10;;;15.80;90.80;;;;;;5078254;28;20173;-43
2022/10/29 06:46:00;;;;;;;7.67;5.20;;;15.90;90.80;;;;;;5077184;28;20401;-48
2022/10/29 06:48:25;;;;;;;5.67;4.60;;;16.00;90.70;;;;;;5077124;28;20419;-43
2022/10/29 06:50:51;;;;;;;6.60;4.33;;;16.10;90.70;;;;;;5076918;28;20616;-46
2022/10/29 06:53:17;;;;;;;12.47;5.07;;;16.20;90.60;;;;;;5077875;28;20167;-42
2022/10/29 06:55:43;;;;;;;8.63;4.70;;;16.30;90.50;;;;;;5076063;28;20463;-44
2022/10/29 06:58:14;;;;;;;6.63;4.03;;;16.40;90.40;;;;;;5057900;28;20479;-44
2022/10/29 07:00:41;;;;;;;6.90;4.87;;;16.60;90.30;;;;;;5075078;28;20168;-45
2022/10/29 07:03:10;;;;;;;6.60;4.33;;;16.70;90.10;;;;;;5075706;28;20702;-44
2022/10/29 07:05:36;;;;;;;8.03;5.00;;;16.90;89.90;;;;;;5075851;28;20575;-44
2022/10/29 07:08:02;;;;;;;8.17;5.13;;;17.20;89.60;;;;;;5075340;28;20514;-43
2022/10/29 07:10:30;;;;;;;8.53;5.67;;;17.40;89.10;;;;;;5042883;28;20184;-45
2022/10/29 07:12:56;;;;;;;9.60;4.67;;;17.60;88.50;;;;;;5077538;28;20266;-45
2022/10/29 07:15:21;;;;;;;7.10;5.10;;;17.80;87.90;;;;;;5059858;28;20523;-45
2022/10/29 07:18:05;;;;;;;6.60;4.30;;;18.10;87.40;;;;;;5078261;28;20471;-44
2022/10/29 07:20:36;;;;;;;6.73;4.57;;;18.30;86.70;;;;;;5077315;28;20168;-42
2022/10/29 07:23:02;;;;;;;6.57;4.30;;;18.50;86.10;;;;;;5077657;28;20437;-44
2022/10/29 07:25:29;;;;;;;8.03;5.00;;;18.70;85.60;;;;;;5059572;28;20414;-45
2022/10/29 07:27:54;;;;;;;5.13;4.37;;;18.90;85.00;;;;;;5078140;28;20261;-45
2022/10/29 07:30:20;;;;;;;8.53;4.63;;;19.00;84.40;;;;;;5078223;28;20447;-43
2022/10/29 07:32:46;;;;;;;9.57;4.63;;;19.20;83.90;;;;;;5078700;28;20181;-44
2022/10/29 07:35:12;;;;;;;8.53;4.80;;;19.30;83.50;;;;;;5060608;28;20881;-45
2022/10/29 07:37:37;;;;;;;6.47;4.60;;;19.40;83.10;;;;;;5076854;28;20208;-44
2022/10/29 07:40:04;;;;;;;8.23;3.60;;;19.70;82.80;;;;;;5042184;28;20191;-44
2022/10/29 07:42:29;;;;;;;8.60;4.70;;;19.90;82.00;;;;;;5076767;28;20184;-45
2022/10/29 07:44:55;;;;;;;9.40;4.67;;;20.20;81.30;;;;;;5076476;28;20483;-45
2022/10/29 07:47:21;;;;;;;5.30;4.20;;;20.50;80.50;;;;;;5076124;28;20472;-45
2022/10/29 07:49:47;;;;;;;6.03;4.40;;;20.90;79.80;;;;;;5074936;28;20207;-45
2022/10/29 07:52:12;;;;;;;6.40;4.20;;;21.20;78.80;;;;;;5058402;28;20173;-43
2022/10/29 07:54:38;;;;;;;6.30;4.17;;;21.50;77.80;;;;;;5074567;28;20424;-44
2022/10/29 07:57:04;;;;;;;6.90;4.50;;;21.90;77.00;;;;;;5040703;28;20231;-45
2022/10/29 07:59:30;;;;;;;8.20;4.23;;;22.20;76.00;;;;;;5075780;28;20179;-45
2022/10/29 08:01:55;;;;;;;7.77;4.60;;;22.60;75.10;;;;;;5041660;28;20185;-44
2022/10/29 08:04:21;;;;;;;5.17;4.03;;;23.00;74.00;;;;;;5074972;28;20911;-44
2022/10/29 08:06:47;;;;;;;13.27;4.73;;;23.40;72.80;;;;;;5040495;28;20185;-45
2022/10/29 08:09:13;;;;;;;5.57;4.30;;;23.80;71.50;;;;;;5040840;28;20189;-43
2022/10/29 08:11:39;;;;;;;7.97;3.93;;;24.20;70.10;;;;;;5076747;28;20234;-44
2022/10/29 08:14:05;;;;;;;10.00;4.30;;;24.60;68.40;;;;;;5058681;28;20430;-45
2022/10/29 08:16:30;;;;;;;10.23;4.97;;;25.10;66.80;;;;;;5075885;28;20278;-44
2022/10/29 08:18:56;;;;;;;5.10;3.80;;;25.60;65.60;;;;;;5073275;28;20458;-44
2022/10/29 08:21:22;;;;;;;5.70;4.57;;;26.10;63.00;;;;;;5074337;28;20184;-45
2022/10/29 08:23:47;;;;;;;6.97;3.90;;;26.60;61.00;;;;;;5075071;28;20373;-49
2022/10/29 08:26:13;;;;;;;11.23;4.57;;;27.10;59.10;;;;;;5073985;28;20318;-45
2022/10/29 08:28:39;;;;;;;7.47;4.57;;;27.50;57.70;;;;;;5039440;28;20177;-44
2022/10/29 08:31:05;;;;;;;9.60;4.73;;;28.00;56.40;;;;;;5076100;28;20189;-45
2022/10/29 08:33:30;;;;;;;7.57;4.57;;;28.40;55.10;;;;;;5076422;28;20188;-45
2022/10/29 08:35:56;;;;;;;8.20;4.30;;;28.80;53.90;;;;;;5076119;28;20173;-47
2022/10/29 08:38:22;;;;;;;10.47;5.17;;;29.20;52.60;;;;;;5076117;28;20278;-45
2022/10/29 08:41:18;;;;;;;8.67;4.73;;;29.50;51.30;;;;;;5075395;28;20176;-46
2022/10/29 08:43:53;;;;;;;9.53;4.80;;;29.90;50.40;;;;;;5077468;28;20396;-45
2022/10/29 08:46:32;;;;;;;6.47;4.90;;;30.30;49.30;;;;;;5077543;28;20651;-44
2022/10/29 08:49:02;;;;;;;7.60;5.17;;;30.60;47.90;;;;;;5058127;28;20411;-44
2022/10/29 08:51:36;;;;;;;8.30;4.77;;;31.00;47.00;;;;;;5075547;28;20390;-47
2022/10/29 08:54:02;;;;;;;8.17;4.97;;;31.40;46.40;;;;;;5059707;28;20420;-49
2022/10/29 08:56:36;;;;;;;6.37;4.23;;;31.80;45.70;;;;;;5076972;28;20948;-44
2022/10/29 08:59:12;;;;;;;5.93;4.20;;;32.10;44.90;;;;;;5057125;28;20203;-44
2022/10/29 09:01:38;;;;;;;15.80;5.03;;;32.60;44.20;;;;;;5073843;28;20408;-45
2022/10/29 09:04:21;;;;;;;9.67;5.40;;;33.10;43.40;;;;;;5074824;28;20415;-50
2022/10/29 09:07:11;;;;;;;8.60;4.70;;;33.60;42.50;;;;;;5075664;28;20212;-46
2022/10/29 09:09:37;;;;;;;8.50;5.20;;;34.10;41.70;;;;;;5075866;28;20818;-46
2022/10/29 09:12:25;;;;;;;7.27;5.30;;;34.40;40.60;;;;;;5075875;28;20711;-46
2022/10/29 09:15:28;;;;;;;8.50;4.30;;;34.60;38.80;;;;;;5076000;28;20210;-47
2022/10/29 09:18:26;;;;;;;9.57;4.90;;;34.70;37.60;;;;;;5073420;28;20463;-44
2022/10/29 09:20:58;;;;;;;4.77;4.10;;;35.00;36.90;;;;;;5074779;28;20880;-45
2022/10/29 09:23:43;;;;;;;7.90;4.10;;;35.20;36.50;;;;;;5074617;28;20477;-44
2022/10/29 09:26:30;;;;;;;7.00;4.30;;;35.30;36.10;;;;;;5056831;28;20398;-48
2022/10/29 09:29:17;;;;;;;7.20;4.57;;;35.50;36.10;;;;;;5055257;28;20438;-46
2022/10/29 09:31:48;;;;;;;6.53;4.07;;;35.70;35.80;;;;;;5075293;28;20809;-47
2022/10/29 09:34:18;;;;;;;8.77;3.90;;;36.00;35.40;;;;;;5074601;28;20427;-46
2022/10/29 09:36:45;;;;;;;7.93;4.47;;;36.30;35.10;;;;;;5056323;28;20604;-45
2022/10/29 09:39:15;;;;;;;7.57;3.77;;;36.40;34.60;;;;;;5056858;28;20511;-46
2022/10/29 09:41:41;;;;;;;7.23;4.10;;;36.70;34.40;;;;;;5056268;28;20425;-48
2022/10/29 09:44:36;;;;;;;8.30;4.40;;;37.00;34.10;;;;;;5075230;28;20425;-45
2022/10/29 09:47:27;;;;;;;7.37;4.07;;;37.30;33.30;;;;;;5076125;28;20428;-48
2022/10/29 09:50:14;;;;;;;8.17;4.30;;;37.60;32.10;;;;;;5059596;28;20520;-46
2022/10/29 09:52:45;;;;;;;6.03;4.17;;;37.90;31.70;;;;;;5095640;28;20857;-45
2022/10/29 09:55:42;;;;;;;7.50;3.70;;;38.10;31.10;;;;;;5095121;28;20436;-47
2022/10/29 09:58:25;;;;;;;8.13;4.50;;;38.30;31.00;;;;;;5057728;28;20477;-46
2022/10/29 10:00:52;;;;;;;7.60;4.90;;;38.70;30.80;;;;;;5075338;28;20442;-47
2022/10/29 10:03:22;;;;;;;7.40;3.67;;;38.70;30.60;;;;;;5076024;28;20751;-45
2022/10/29 10:06:03;;;;;;;7.93;4.30;;;38.80;30.40;;;;;;5058193;28;20404;-46
2022/10/29 10:08:31;;;;;;;9.33;4.57;;;38.80;30.00;;;;;;5075929;28;20851;-48
2022/10/29 10:11:05;;;;;;;7.23;3.87;;;39.00;30.00;;;;;;5057706;28;20517;-49
2022/10/29 10:13:54;;;;;;;7.67;4.90;;;39.30;29.90;;;;;;5057473;28;20426;-46
2022/10/29 10:16:25;;;;;;;8.27;4.93;;;39.60;29.70;;;;;;5076123;28;20427;-45
2022/10/29 10:18:52;;;;;;;4.97;3.67;;;40.00;29.40;;;;;;5075261;28;20506;-47
2022/10/29 10:21:29;;;;;;;12.00;5.40;;;40.30;29.00;;;;;;5059220;28;20423;-46
2022/10/29 10:23:56;;;;;;;11.20;4.70;;;40.70;29.10;;;;;;5079449;28;20415;-45
2022/10/29 10:26:28;;;;;;;7.07;4.23;;;41.00;28.70;;;;;;5078395;28;20881;-46
2022/10/29 10:29:16;;;;;;;8.20;4.73;;;41.40;28.40;;;;;;5077824;28;20480;-47
2022/10/29 10:31:45;;;;;;;10.60;4.90;;;41.70;28.20;;;;;;5077443;28;20670;-45
2022/10/29 10:34:23;;;;;;;7.07;4.30;;;41.90;27.90;;;;;;5059840;28;20504;-47
2022/10/29 10:37:01;;;;;;;9.27;4.30;;;42.20;27.70;;;;;;5077908;28;20468;-46
2022/10/29 10:39:37;;;;;;;8.10;4.50;;;42.50;27.70;;;;;;5078866;28;20701;-46
2022/10/29 10:42:05;;;;;;;7.53;4.20;;;42.70;27.60;;;;;;5061371;28;20436;-45
2022/10/29 10:44:31;;;;;;;9.50;5.00;;;42.90;27.40;;;;;;5079573;28;20422;-46
2022/10/29 10:47:03;;;;;;;8.30;4.30;;;42.90;27.30;;;;;;5060734;28;20478;-50
2022/10/29 10:49:38;;;;;;;7.90;4.57;;;43.10;27.30;;;;;;5061002;28;20706;-45
2022/10/29 10:52:15;;;;;;;8.70;5.17;;;43.20;27.20;;;;;;5078462;28;20431;-47
2022/10/29 10:54:44;;;;;;;5.40;3.97;;;43.30;27.00;;;;;;5078035;28;20421;-48
2022/10/29 10:57:10;;;;;;;7.37;3.97;;;43.40;26.80;;;;;;5060445;28;20474;-45
2022/10/29 10:59:38;;;;;;;5.70;4.07;;;43.30;26.80;;;;;;5078848;28;20419;-48
2022/10/29 11:02:04;;;;;;;8.27;5.20;;;43.30;27.00;;;;;;5078289;28;20242;-48
2022/10/29 11:04:33;;;;;;;6.63;4.50;;;43.40;27.10;;;;;;5077593;28;20703;-49
2022/10/29 11:07:02;;;;;;;9.60;4.67;;;43.80;27.30;;;;;;5058245;28;20872;-47
2022/10/29 11:09:41;;;;;;;7.33;4.57;;;44.00;27.10;;;;;;5076384;28;20457;-48
2022/10/29 11:12:31;;;;;;;6.40;4.23;;;44.30;26.80;;;;;;5058643;28;20861;-48
2022/10/29 11:15:33;;;;;;;6.57;3.80;;;44.50;26.80;;;;;;5058992;28;20904;-48
2022/10/29 11:18:19;;;;;;;8.20;4.87;;;44.80;26.60;;;;;;5006706;28;20442;-48
2022/10/29 11:20:55;;;;;;;7.90;4.30;;;45.00;26.50;;;;;;5058757;28;20414;-48
2022/10/29 11:23:56;;;;;;;7.83;4.20;;;45.20;26.40;;;;;;5057780;28;20408;-45
2022/10/29 11:26:33;;;;;;;6.10;3.90;;;45.50;26.40;;;;;;5031770;28;20421;-46
2022/10/29 11:29:34;;;;;;;6.10;3.60;;;45.70;26.40;;;;;;5076559;28;20412;-47
2022/10/29 11:32:38;;;;;;;5.47;3.93;;;46.00;26.50;;;;;;5022582;28;20846;-47
2022/10/29 11:35:26;;;;;;;5.60;3.50;;;46.30;26.30;;;;;;5077557;28;20418;-48
2022/10/29 11:38:25;;;;;;;6.70;4.60;;;46.70;26.30;;;;;;5057109;28;20448;-50
2022/10/29 11:41:04;;;;;;;7.37;3.50;;;46.90;26.20;;;;;;5077724;28;20443;-46
2022/10/29 11:43:31;;;;;;;3.93;3.27;;;47.10;25.90;;;;;;5060059;28;20531;-48
2022/10/29 11:46:14;;;;;;;5.33;4.10;;;47.40;25.80;;;;;;5069692;28;20434;-48
2022/10/29 11:48:54;;;;;;;9.13;3.37;;;47.60;25.60;;;;;;5079809;28;20858;-46
2022/10/29 11:51:52;;;;;;;9.27;4.57;;;47.90;25.40;;;;;;5096737;28;20413;-52
2022/10/29 11:54:37;;;;;;;7.50;3.87;;;48.20;25.40;;;;;;5051815;28;20418;-47
2022/10/29 11:57:40;;;;;;;5.73;3.67;;;48.20;25.20;;;;;;5092859;28;20479;-47
2022/10/29 12:00:18;;;;;;;5.87;3.80;;;48.20;25.10;;;;;;5094882;28;20419;-48
2022/10/29 12:03:01;;;;;;;11.57;4.90;;;48.20;25.10;;;;;;5078352;28;20844;-47
2022/10/29 12:06:08;;;;;;;6.97;4.30;;;47.90;25.10;;;;;;5095557;28;20472;-44
2022/10/29 12:09:00;;;;;;;7.30;4.10;;;47.60;25.10;;;;;;5093852;28;20451;-46
2022/10/29 12:11:36;;;;;;;7.67;4.47;;;47.40;25.20;;;;;;5093916;28;20478;-46
2022/10/29 12:14:06;;;;;;;6.60;4.63;;;47.40;25.20;;;;;;5075844;28;20512;-48
2022/10/29 12:16:52;;;;;;;6.73;4.40;;;47.20;25.20;;;;;;5076639;28;20520;-46
2022/10/29 12:19:24;;;;;;;6.63;4.40;;;47.20;25.20;;;;;;5092808;28;20406;-48
2022/10/29 12:22:18;;;;;;;5.60;3.50;;;47.10;25.10;;;;;;5094245;28;20410;-48
2022/10/29 12:25:01;;;;;;;8.27;3.87;;;47.00;24.90;;;;;;5092824;28;20414;-47
2022/10/29 12:27:30;;;;;;;5.90;3.97;;;47.00;24.90;;;;;;5086067;28;20468;-47
2022/10/29 12:30:03;;;;;;;7.33;4.07;;;46.70;24.80;;;;;;5079472;28;20481;-46
2022/10/29 12:32:49;;;;;;;4.73;3.83;;;46.40;24.90;;;;;;5096078;28;20423;-49
2022/10/29 12:35:50;;;;;;;6.43;3.93;;;46.30;25.10;;;;;;5091035;28;20438;-47
2022/10/29 12:38:34;;;;;;;7.47;3.80;;;46.20;25.20;;;;;;5067529;28;20475;-49
2022/10/29 12:41:21;;;;;;;7.00;4.23;;;46.10;25.30;;;;;;5076649;28;20928;-46
2022/10/29 12:43:47;;;;;;;6.53;3.80;;;45.70;25.40;;;;;;5057998;28;20438;-47
2022/10/29 12:47:10;;;;;;;7.77;4.37;;;45.20;25.60;;;;;;5080415;28;20858;-47
2022/10/29 12:50:13;;;;;;;7.03;3.80;;;44.50;25.70;;;;;;5014775;28;20283;-48
2022/10/29 12:53:09;;;;;;;5.67;3.43;;;44.20;25.80;;;;;;5013403;28;21008;-46
2022/10/29 12:55:35;;;;;;;5.83;3.47;;;44.30;25.80;;;;;;5069985;28;20441;-46
2022/10/29 12:58:40;;;;;;;5.23;3.60;;;44.10;25.60;;;;;;5076206;28;20440;-46
2022/10/29 13:01:05;;;;;;;5.60;3.20;;;43.90;25.70;;;;;;5050134;28;20512;-47
2022/10/29 13:04:01;;;;;;;6.13;3.63;;;43.90;25.60;;;;;;5077860;28;20447;-48
2022/10/29 13:06:41;;;;;;;5.87;4.13;;;44.00;25.60;;;;;;5078336;28;20467;-48
2022/10/29 13:09:21;;;;;;;7.83;4.93;;;44.10;25.60;;;;;;5091708;28;20949;-45
2022/10/29 13:11:52;;;;;;;6.30;4.27;;;44.20;25.70;;;;;;5078016;28;20442;-48